Terminal Aerodrome Forecast
Issued by NWS

Home | Current Version | Previous Version | Text Only | Print | Product List | Glossary On
Versions: 1 2 3 4 5 6 7 8 9 10 11 12 13 14 15 16 17
493
FTUS45 KREV 301732
TAFMMH
TAF
KMMH 301732Z 3018/0118 29012G18KT P6SM SCT025 BKN035
     FM302000 30014G24KT P6SM VCSH SCT040 BKN060
     FM010200 30008KT P6SM SCT060=

USA.gov is the U.S. government's official web portal to all federal, state and local government web resources and services.